createdAt,value
2016-11-19T00:03:52.392Z,0
2016-11-19T00:08:56.848Z,0
2016-11-19T00:14:00.941Z,0
2016-11-19T00:19:05.029Z,0
2016-11-19T00:24:09.456Z,0
2016-11-19T00:29:13.547Z,0
2016-11-19T00:34:17.638Z,0
2016-11-19T00:39:21.723Z,0
2016-11-19T00:44:25.808Z,0
2016-11-19T00:49:30.236Z,0
2016-11-19T00:54:34.329Z,0
2016-11-19T00:59:38.418Z,0
2016-11-19T01:04:42.837Z,0
2016-11-19T01:09:47.601Z,0
2016-11-19T01:14:51.690Z,0
2016-11-19T01:19:55.784Z,0
2016-11-19T01:24:59.872Z,0
2016-11-19T01:30:04.300Z,0
2016-11-19T01:35:08.718Z,0
2016-11-19T01:40:13.483Z,0
2016-11-19T01:45:17.568Z,0
2016-11-19T01:50:21.657Z,0
2016-11-19T01:55:25.750Z,0
2016-11-19T02:00:30.169Z,0
2016-11-19T02:05:34.254Z,0
2016-11-19T02:10:38.338Z,0
2016-11-19T02:15:42.425Z,0
2016-11-19T02:20:46.524Z,0
2016-11-19T02:25:50.611Z,0
2016-11-19T02:30:54.693Z,0
2016-11-19T02:35:59.111Z,0
2016-11-19T02:41:03.538Z,0
2016-11-19T02:46:07.622Z,0
2016-11-19T02:51:12.040Z,0
2016-11-19T02:56:16.133Z,0
2016-11-19T03:01:20.545Z,0
2016-11-19T03:06:25.310Z,0
2016-11-19T03:11:29.716Z,0
2016-11-19T03:16:33.800Z,0
2016-11-19T03:21:38.219Z,0
2016-11-19T03:26:42.970Z,0
2016-11-19T03:31:47.056Z,0
2016-11-19T03:36:51.143Z,0
2016-11-19T03:41:55.234Z,0
2016-11-19T03:46:59.648Z,0
2016-11-19T03:52:04.064Z,0
2016-11-19T03:57:08.476Z,0
2016-11-19T04:02:12.559Z,0
2016-11-19T04:07:16.652Z,0
2016-11-19T04:12:20.731Z,0
2016-11-19T04:17:25.154Z,0
2016-11-19T04:22:29.244Z,0
2016-11-19T04:27:33.328Z,0
2016-11-19T04:32:37.744Z,0
2016-11-19T04:37:41.829Z,0
2016-11-19T04:42:46.585Z,0
2016-11-19T04:47:50.680Z,0
2016-11-19T04:52:55.095Z,0
2016-11-19T04:57:59.518Z,0
2016-11-19T05:03:03.605Z,0
2016-11-19T05:08:07.703Z,0
2016-11-19T05:13:12.471Z,0
2016-11-19T05:18:16.900Z,0
2016-11-19T05:23:21.317Z,0
2016-11-19T05:28:25.409Z,0
2016-11-19T05:33:29.833Z,0
2016-11-19T05:38:33.923Z,0
2016-11-19T05:43:38.347Z,0
2016-11-19T05:48:42.433Z,0
2016-11-19T05:53:46.515Z,0
2016-11-19T05:58:50.610Z,0
2016-11-19T06:03:54.696Z,0
2016-11-19T06:08:58.786Z,0
2016-11-19T06:14:02.872Z,0
2016-11-19T06:19:07.626Z,1
2016-11-19T06:24:11.724Z,1
2016-11-19T06:29:15.804Z,2
2016-11-19T06:34:19.893Z,3
2016-11-19T06:39:24.312Z,5
2016-11-19T06:44:28.402Z,7
2016-11-19T06:49:32.825Z,8
2016-11-19T06:54:36.912Z,9
2016-11-19T06:59:41.007Z,11
2016-11-19T07:04:45.767Z,12
2016-11-19T07:09:49.859Z,16
2016-11-19T07:14:53.933Z,20
2016-11-19T07:19:58.026Z,25
2016-11-19T07:25:02.449Z,36
2016-11-19T07:30:06.866Z,53
2016-11-19T07:35:11.290Z,42
2016-11-19T07:40:15.382Z,51
2016-11-19T07:45:20.138Z,79
2016-11-19T07:50:24.231Z,133
2016-11-19T07:55:28.644Z,97
2016-11-19T08:00:33.072Z,209
2016-11-19T08:05:37.156Z,250
2016-11-19T08:10:41.248Z,139
2016-11-19T08:15:45.674Z,189
2016-11-19T08:20:49.764Z,212
2016-11-19T08:25:53.854Z,362
2016-11-19T08:30:58.281Z,454
2016-11-19T08:36:02.369Z,475
2016-11-19T08:41:06.499Z,366
2016-11-19T08:46:10.928Z,279
2016-11-19T08:51:15.014Z,278
2016-11-19T08:56:19.121Z,506
2016-11-19T09:01:23.216Z,431
2016-11-19T09:06:27.686Z,317
2016-11-19T09:11:32.114Z,417
2016-11-19T09:16:36.205Z,528
2016-11-19T09:21:40.302Z,303
2016-11-19T09:26:45.407Z,314
2016-11-19T09:31:49.495Z,409
2016-11-19T09:36:53.586Z,761
2016-11-19T09:41:57.674Z,724
2016-11-19T09:47:01.775Z,858
2016-11-19T09:52:05.867Z,810
2016-11-19T09:57:10.649Z,911
2016-11-19T10:02:14.759Z,934
2016-11-19T10:07:19.531Z,535
2016-11-19T10:12:23.958Z,1061
2016-11-19T10:17:28.166Z,666
2016-11-19T10:22:32.605Z,826
2016-11-19T10:27:37.041Z,572
2016-11-19T10:32:41.143Z,834
2016-11-19T10:37:45.244Z,749
2016-11-19T10:42:50.008Z,429
2016-11-19T10:47:54.437Z,390
2016-11-19T10:52:59.203Z,421
2016-11-19T10:58:03.631Z,524
2016-11-19T11:03:07.737Z,502
2016-11-19T11:08:11.838Z,673
2016-11-19T11:13:16.269Z,384
2016-11-19T11:18:21.038Z,500
2016-11-19T11:23:25.479Z,456
2016-11-19T11:28:30.028Z,911
2016-11-19T11:33:34.143Z,618
2016-11-19T11:38:38.566Z,1107
2016-11-19T11:43:42.678Z,578
2016-11-19T11:48:46.790Z,450
2016-11-19T11:53:51.552Z,564
2016-11-19T11:58:55.977Z,640
2016-11-19T12:04:00.288Z,409
2016-11-19T12:09:04.723Z,385
2016-11-19T12:14:09.480Z,339
2016-11-19T12:19:13.909Z,435
2016-11-19T12:24:18.680Z,681
2016-11-19T12:29:23.458Z,1412
2016-11-19T12:34:28.222Z,1285
2016-11-19T12:39:32.335Z,866
2016-11-19T12:44:36.775Z,1005
2016-11-19T12:49:40.868Z,1213
2016-11-19T12:54:44.956Z,1049
2016-11-19T12:59:49.394Z,1114
2016-11-19T13:04:53.817Z,723
2016-11-19T13:09:57.914Z,1004
2016-11-19T13:15:02.009Z,971
2016-11-19T13:20:06.100Z,957
2016-11-19T13:25:10.526Z,506
2016-11-19T13:30:14.619Z,351
2016-11-19T13:35:19.055Z,355
2016-11-19T13:40:23.826Z,312
2016-11-19T13:45:28.251Z,235
2016-11-19T13:50:32.346Z,108
2016-11-19T13:55:37.139Z,84
2016-11-19T14:00:42.247Z,85
2016-11-19T14:05:46.345Z,92
2016-11-19T14:10:50.773Z,76
2016-11-19T14:15:54.880Z,107
2016-11-19T14:20:59.308Z,137
2016-11-19T14:26:03.403Z,111
2016-11-19T14:31:07.499Z,74
2016-11-19T14:36:11.604Z,59
2016-11-19T14:41:16.369Z,43
2016-11-19T14:46:20.797Z,22
2016-11-19T14:51:24.891Z,12
2016-11-19T14:56:29.318Z,9
2016-11-19T15:01:33.408Z,6
2016-11-19T15:06:37.498Z,6
2016-11-19T15:11:41.949Z,8
2016-11-19T15:16:46.726Z,5
2016-11-19T15:21:50.813Z,2
2016-11-19T15:26:54.903Z,1
2016-11-19T15:31:59.339Z,1
2016-11-19T15:37:03.426Z,1
2016-11-19T15:42:07.514Z,0
2016-11-19T15:47:11.603Z,0
2016-11-19T15:52:15.688Z,0
2016-11-19T15:57:19.779Z,0
2016-11-19T16:02:23.882Z,0
2016-11-19T16:07:28.308Z,0
2016-11-19T16:12:32.743Z,0
2016-11-19T16:17:36.836Z,0
2016-11-19T16:22:41.260Z,0
2016-11-19T16:27:46.033Z,0
2016-11-19T16:32:50.463Z,0
2016-11-19T16:37:55.225Z,0
2016-11-19T16:42:59.983Z,0
2016-11-19T16:48:04.417Z,0
2016-11-19T16:53:08.505Z,0
2016-11-19T16:58:12.642Z,1
2016-11-19T17:03:16.731Z,2
2016-11-19T17:08:20.835Z,2
2016-11-19T17:13:24.934Z,2
2016-11-19T17:18:29.021Z,2
2016-11-19T17:23:33.111Z,2
2016-11-19T17:28:37.528Z,2
2016-11-19T17:33:41.959Z,2
2016-11-19T17:38:46.049Z,2
2016-11-19T17:43:50.146Z,2
2016-11-19T17:48:54.238Z,2
2016-11-19T17:53:58.344Z,2
2016-11-19T17:59:02.432Z,2
2016-11-19T18:04:06.532Z,2
2016-11-19T18:09:10.620Z,2
2016-11-19T18:14:14.713Z,2
2016-11-19T18:19:19.161Z,2
2016-11-19T18:24:23.266Z,2
2016-11-19T18:29:27.709Z,2
2016-11-19T18:34:32.475Z,2
2016-11-19T18:39:36.901Z,2
2016-11-19T18:44:41.327Z,2
2016-11-19T18:49:45.757Z,2
2016-11-19T18:54:50.518Z,2
2016-11-19T18:59:54.612Z,2
2016-11-19T19:04:58.701Z,2
2016-11-19T19:10:02.785Z,2
2016-11-19T19:15:07.219Z,2
2016-11-19T19:20:11.308Z,2
2016-11-19T19:25:15.402Z,2
2016-11-19T19:30:19.821Z,2
2016-11-19T19:35:23.910Z,2
2016-11-19T19:40:28.336Z,2
2016-11-19T19:45:32.432Z,2
2016-11-19T19:50:36.519Z,2
2016-11-19T19:55:40.945Z,2
2016-11-19T20:00:45.369Z,2
2016-11-19T20:05:49.453Z,2
2016-11-19T20:10:53.885Z,2
2016-11-19T20:15:58.305Z,2
2016-11-19T20:21:02.399Z,2
2016-11-19T20:26:06.827Z,2
2016-11-19T20:31:11.584Z,2
2016-11-19T20:36:15.670Z,2
2016-11-19T20:41:19.763Z,2
2016-11-19T20:46:24.533Z,2
2016-11-19T20:51:28.959Z,2
2016-11-19T20:56:33.049Z,2
2016-11-19T21:01:37.142Z,2
2016-11-19T21:06:41.241Z,2
2016-11-19T21:11:45.329Z,2
2016-11-19T21:16:49.419Z,2
2016-11-19T21:21:53.520Z,2
2016-11-19T21:26:57.950Z,2
2016-11-19T21:32:02.710Z,2
2016-11-19T21:37:07.731Z,2
2016-11-19T21:42:12.164Z,0
2016-11-19T21:47:16.582Z,0
2016-11-19T21:52:20.676Z,0
2016-11-19T21:57:24.768Z,0
2016-11-19T22:02:29.188Z,0
2016-11-19T22:07:33.273Z,0
2016-11-19T22:12:37.693Z,0
2016-11-19T22:17:41.787Z,0
2016-11-19T22:22:46.219Z,0
2016-11-19T22:27:50.975Z,0
2016-11-19T22:32:55.062Z,0
2016-11-19T22:37:59.480Z,0
2016-11-19T22:43:03.905Z,0
2016-11-19T22:48:08.336Z,0
2016-11-19T22:53:12.424Z,0
2016-11-19T22:58:16.507Z,0
2016-11-19T23:03:20.596Z,0
2016-11-19T23:08:25.033Z,0
2016-11-19T23:13:29.116Z,0
2016-11-19T23:18:33.206Z,0
2016-11-19T23:23:37.289Z,0
2016-11-19T23:28:41.378Z,0
2016-11-19T23:33:45.467Z,0
2016-11-19T23:38:49.553Z,0
2016-11-19T23:43:53.638Z,0
2016-11-19T23:48:58.066Z,0
2016-11-19T23:54:02.157Z,0
2016-11-19T23:59:06.577Z,0
